Time;durP1;ratioP1;P1;durP2;ratioP2;P2;SDS_P1;SDS_P2;PMS_P1;PMS_P2;Temp;Humidity;BMP_temperature;BMP_pressure;BME280_temperature;BME280_humidity;BME280_pressure;Samples;Min_cycle;Max_cycle;Signal;HPM_P1;HPM_P2
2022/05/05 00:00:54;;;;;;;18.27;7.68;;;7.60;99.90;;;;;;5039572;28;20486;-46
2022/05/05 00:03:20;;;;;;;9.80;6.75;;;7.60;99.90;;;;;;5040295;28;20107;-49
2022/05/05 00:05:46;;;;;;;10.85;6.45;;;7.60;99.90;;;;;;5032903;28;20387;-49
2022/05/05 00:08:12;;;;;;;11.52;6.43;;;7.50;99.90;;;;;;5038971;28;20061;-49
2022/05/05 00:16:09;;;;;;;12.20;6.45;;;7.50;99.90;;;;;;5037371;28;20045;-47
2022/05/05 00:18:35;;;;;;;10.45;6.15;;;7.40;99.90;;;;;;5037803;28;20053;-51
2022/05/05 00:21:01;;;;;;;12.88;7.35;;;7.40;99.90;;;;;;5027209;28;20057;-57
2022/05/05 00:23:28;;;;;;;11.30;6.53;;;7.40;99.90;;;;;;5043336;28;20088;-57
2022/05/05 00:25:54;;;;;;;12.25;7.60;;;7.30;99.90;;;;;;5043044;28;20116;-56
2022/05/05 00:28:21;;;;;;;10.82;7.22;;;7.40;99.90;;;;;;5023103;28;20122;-57
2022/05/05 00:30:47;;;;;;;14.38;7.22;;;7.40;99.90;;;;;;5058826;28;20251;-57
2022/05/05 00:33:13;;;;;;;12.85;7.57;;;7.40;99.90;;;;;;5044591;28;20412;-57
2022/05/05 00:35:39;;;;;;;13.73;6.75;;;7.50;99.90;;;;;;5043964;28;20057;-57
2022/05/05 00:38:05;;;;;;;11.68;6.53;;;7.40;99.90;;;;;;5039990;28;20108;-57
2022/05/05 00:40:31;;;;;;;13.85;6.85;;;7.40;99.90;;;;;;5032851;28;20081;-52
2022/05/05 00:43:02;;;;;;;15.57;7.53;;;7.40;99.90;;;;;;5045963;28;20568;-50
2022/05/05 00:45:28;;;;;;;13.68;7.47;;;7.40;99.90;;;;;;5033263;28;20132;-57
2022/05/05 00:48:08;;;;;;;15.15;8.20;;;7.30;99.90;;;;;;5037408;28;20109;-48
2022/05/05 00:50:36;;;;;;;15.05;7.78;;;7.30;99.90;;;;;;5045718;28;20056;-48
2022/05/05 00:53:04;;;;;;;11.48;6.78;;;7.30;99.90;;;;;;5045936;28;20053;-51
2022/05/05 00:55:37;;;;;;;13.07;6.55;;;7.30;99.90;;;;;;5040940;28;20516;-49
2022/05/05 00:58:04;;;;;;;10.07;7.25;;;7.40;99.90;;;;;;5032618;28;20130;-47
2022/05/05 01:00:32;;;;;;;18.20;8.13;;;7.30;99.90;;;;;;5044433;28;20052;-50
2022/05/05 01:03:00;;;;;;;14.35;7.57;;;7.30;99.90;;;;;;5045193;28;20049;-48
2022/05/05 01:05:28;;;;;;;13.20;7.50;;;7.30;99.90;;;;;;5045021;28;20102;-50
2022/05/05 01:07:58;;;;;;;14.73;8.18;;;7.30;99.90;;;;;;5041404;28;20129;-57
2022/05/05 01:10:25;;;;;;;10.82;6.97;;;7.20;99.90;;;;;;5044794;28;20061;-57
2022/05/05 01:12:52;;;;;;;15.60;8.30;;;7.20;99.90;;;;;;5044285;28;20059;-57
2022/05/05 01:15:19;;;;;;;14.90;8.45;;;7.20;99.90;;;;;;5011436;28;20142;-57
2022/05/05 01:17:45;;;;;;;10.23;7.05;;;7.20;99.90;;;;;;5043641;28;20059;-57
2022/05/05 01:20:16;;;;;;;10.20;7.43;;;7.20;99.90;;;;;;5026403;28;20033;-57
2022/05/05 01:22:42;;;;;;;12.00;7.00;;;7.30;99.90;;;;;;5025978;28;20154;-57
2022/05/05 01:28:14;;;;;;;14.68;8.10;;;7.20;99.90;;;;;;4945275;28;20050;-57
2022/05/05 01:30:48;;;;;;;17.02;8.35;;;7.20;99.90;;;;;;4963832;28;20093;-58
2022/05/05 01:33:19;;;;;;;15.27;8.35;;;7.20;99.90;;;;;;4996709;28;20412;-48
2022/05/05 01:35:49;;;;;;;14.30;8.38;;;7.20;99.90;;;;;;5044209;28;20095;-57
2022/05/05 01:38:17;;;;;;;12.90;7.90;;;7.20;99.90;;;;;;5042245;28;20132;-57
2022/05/05 01:40:46;;;;;;;16.27;8.18;;;7.10;99.90;;;;;;5035372;28;20393;-48
2022/05/05 01:43:14;;;;;;;15.65;8.20;;;7.20;99.90;;;;;;5011803;28;20049;-48
2022/05/05 01:45:40;;;;;;;13.52;8.73;;;7.10;99.90;;;;;;5043338;28;20407;-47
2022/05/05 01:48:07;;;;;;;18.27;8.73;;;7.10;99.90;;;;;;5042956;28;20378;-50
2022/05/05 01:50:33;;;;;;;12.50;8.25;;;7.10;99.90;;;;;;5043491;28;20052;-51
2022/05/05 01:53:00;;;;;;;13.57;8.65;;;7.10;99.90;;;;;;5044672;28;20055;-50
2022/05/05 01:55:27;;;;;;;12.52;8.32;;;7.10;99.90;;;;;;5025791;28;20064;-57
2022/05/05 01:57:54;;;;;;;12.23;8.88;;;7.10;99.90;;;;;;5041222;28;20242;-49
2022/05/05 02:00:20;;;;;;;12.95;8.38;;;7.00;99.90;;;;;;5023529;28;20051;-48
2022/05/05 02:02:47;;;;;;;14.48;9.15;;;7.00;99.90;;;;;;5024203;28;20258;-49
2022/05/05 02:05:14;;;;;;;10.93;8.05;;;7.00;99.90;;;;;;5035488;28;20052;-57
2022/05/05 02:07:41;;;;;;;12.50;8.75;;;6.90;99.90;;;;;;5044389;28;20049;-49
2022/05/05 02:10:12;;;;;;;13.85;9.55;;;7.00;99.90;;;;;;5027729;28;21841;-57
2022/05/05 02:12:38;;;;;;;13.95;9.40;;;6.90;99.90;;;;;;5043266;28;20584;-57
2022/05/05 02:15:08;;;;;;;16.08;9.75;;;6.90;99.90;;;;;;5041359;28;20103;-57
2022/05/05 02:17:35;;;;;;;12.43;8.85;;;6.90;99.90;;;;;;5042060;28;20111;-49
2022/05/05 02:20:04;;;;;;;17.10;9.40;;;6.90;99.90;;;;;;5010948;28;20400;-49
2022/05/05 02:22:30;;;;;;;13.18;9.63;;;6.90;99.90;;;;;;5023248;28;20056;-57
2022/05/05 02:24:56;;;;;;;11.02;8.75;;;6.80;99.90;;;;;;5031991;28;20048;-57
2022/05/05 02:27:23;;;;;;;13.90;9.73;;;6.80;99.90;;;;;;5025438;28;20126;-57
2022/05/05 02:29:50;;;;;;;17.40;9.15;;;6.80;99.90;;;;;;5043109;28;20041;-57
2022/05/05 02:32:17;;;;;;;16.00;10.18;;;6.80;99.90;;;;;;5027137;28;20160;-57
2022/05/05 02:34:44;;;;;;;12.23;9.73;;;6.80;99.90;;;;;;5043634;28;20056;-57
2022/05/05 02:39:55;;;;;;;16.13;10.32;;;6.80;99.90;;;;;;5041407;28;20041;-57
2022/05/05 02:42:21;;;;;;;13.57;9.90;;;6.70;99.90;;;;;;5027102;28;20897;-57
2022/05/05 02:44:47;;;;;;;13.85;9.98;;;6.70;99.90;;;;;;5043662;28;20053;-57
2022/05/05 02:47:14;;;;;;;13.65;9.63;;;6.80;99.90;;;;;;5023814;28;20918;-58
2022/05/05 02:49:40;;;;;;;12.43;9.43;;;6.70;99.90;;;;;;5039540;28;20063;-57
2022/05/05 02:52:07;;;;;;;15.60;10.52;;;6.80;99.90;;;;;;5041549;28;20049;-57
2022/05/05 02:54:54;;;;;;;15.52;9.93;;;6.70;99.90;;;;;;5024202;28;20045;-57
2022/05/05 02:57:23;;;;;;;13.40;9.90;;;6.70;99.90;;;;;;5007651;28;20059;-57
2022/05/05 02:59:53;;;;;;;16.88;10.30;;;6.70;99.90;;;;;;5025390;28;20042;-57
2022/05/05 03:02:20;;;;;;;16.13;10.38;;;6.70;99.90;;;;;;5028087;28;20045;-58
2022/05/05 03:04:47;;;;;;;15.07;10.95;;;6.70;99.90;;;;;;5023614;28;20049;-58
2022/05/05 03:07:14;;;;;;;11.73;9.43;;;6.60;99.90;;;;;;5022830;28;20044;-57
2022/05/05 03:09:41;;;;;;;14.13;10.27;;;6.60;99.90;;;;;;5025170;28;20132;-57
2022/05/05 03:12:08;;;;;;;14.18;10.82;;;6.60;99.90;;;;;;5032834;28;20056;-57
2022/05/05 03:14:35;;;;;;;14.98;10.40;;;6.60;99.90;;;;;;5040864;28;20059;-57
2022/05/05 03:17:01;;;;;;;14.30;9.95;;;6.60;99.90;;;;;;5040341;28;20136;-58
2022/05/05 03:19:27;;;;;;;14.98;10.35;;;6.60;99.90;;;;;;5042542;28;20127;-47
2022/05/05 03:21:57;;;;;;;13.00;9.45;;;6.50;99.90;;;;;;5008692;28;20071;-49
2022/05/05 03:24:23;;;;;;;17.75;10.13;;;6.50;99.90;;;;;;5041142;28;20435;-48
2022/05/05 03:26:51;;;;;;;14.48;10.32;;;6.50;99.90;;;;;;5039601;28;20075;-49
2022/05/05 03:29:17;;;;;;;13.68;10.23;;;6.50;99.90;;;;;;5043101;28;20127;-46
2022/05/05 03:31:43;;;;;;;17.38;11.05;;;6.50;99.90;;;;;;5024782;28;20449;-57
2022/05/05 03:34:09;;;;;;;15.90;11.07;;;6.50;99.90;;;;;;5040922;28;20049;-57
2022/05/05 03:36:36;;;;;;;17.35;10.38;;;6.50;99.90;;;;;;5041897;28;20045;-57
2022/05/05 03:39:02;;;;;;;18.17;11.38;;;6.50;99.90;;;;;;5005408;28;20532;-57
2022/05/05 03:41:28;;;;;;;14.90;11.40;;;6.50;99.90;;;;;;5037201;28;20049;-57
2022/05/05 03:43:54;;;;;;;17.33;11.57;;;6.50;99.90;;;;;;5023614;28;20045;-56
2022/05/05 03:46:21;;;;;;;13.48;11.65;;;6.50;99.90;;;;;;5042000;28;20771;-57
2022/05/05 03:48:47;;;;;;;16.95;10.93;;;6.50;99.90;;;;;;5042127;28;20053;-57
2022/05/05 03:51:13;;;;;;;14.45;11.40;;;6.50;99.90;;;;;;5040784;28;20045;-57
2022/05/05 03:53:39;;;;;;;17.10;11.63;;;6.50;99.90;;;;;;5023922;28;20049;-57
2022/05/05 03:56:06;;;;;;;15.20;11.32;;;6.50;99.90;;;;;;5041124;28;20799;-57
2022/05/05 03:58:32;;;;;;;14.35;11.60;;;6.50;99.90;;;;;;5031298;28;20049;-57
2022/05/05 04:00:58;;;;;;;16.80;11.75;;;6.50;99.90;;;;;;5005241;28;20365;-57
2022/05/05 04:03:43;;;;;;;16.55;11.40;;;6.50;99.90;;;;;;5039517;28;20660;-57
2022/05/05 04:06:10;;;;;;;17.83;12.18;;;6.50;99.90;;;;;;5036556;28;20422;-57
2022/05/05 04:08:37;;;;;;;17.73;11.93;;;6.50;99.90;;;;;;5026565;28;20107;-57
2022/05/05 04:11:08;;;;;;;15.05;11.82;;;6.50;99.90;;;;;;5038298;28;20044;-57
2022/05/05 04:13:36;;;;;;;13.60;11.95;;;6.50;99.90;;;;;;5029485;28;20524;-57
2022/05/05 04:16:02;;;;;;;19.08;12.68;;;6.60;99.90;;;;;;5030142;28;20137;-57
2022/05/05 04:18:28;;;;;;;15.55;11.73;;;6.60;99.90;;;;;;5039075;28;20179;-57
2022/05/05 04:20:54;;;;;;;15.60;12.52;;;6.60;99.90;;;;;;5040107;28;20057;-57
2022/05/05 04:23:21;;;;;;;13.77;11.85;;;6.70;99.90;;;;;;5040089;28;20850;-57
2022/05/05 04:25:48;;;;;;;20.13;11.57;;;6.70;99.90;;;;;;5039662;28;20138;-57
2022/05/05 04:28:15;;;;;;;15.43;11.90;;;6.70;99.90;;;;;;5040424;28;20068;-57
2022/05/05 04:30:41;;;;;;;18.25;12.02;;;6.80;99.90;;;;;;5041310;28;20459;-58
2022/05/05 04:33:08;;;;;;;19.42;11.60;;;6.80;99.90;;;;;;5025257;28;20036;-57
2022/05/05 04:35:35;;;;;;;20.00;11.88;;;6.80;99.90;;;;;;5005379;28;20045;-57
2022/05/05 04:38:02;;;;;;;21.63;12.18;;;6.80;99.90;;;;;;5035650;28;20041;-56
2022/05/05 04:40:28;;;;;;;17.67;11.88;;;6.90;99.90;;;;;;5029701;28;20495;-57
2022/05/05 04:42:55;;;;;;;16.88;12.05;;;6.90;99.90;;;;;;5041028;28;20146;-57
2022/05/05 04:45:21;;;;;;;17.88;12.20;;;6.90;99.90;;;;;;5040798;28;20487;-57
2022/05/05 04:47:48;;;;;;;15.77;11.55;;;7.00;99.90;;;;;;5040681;28;20140;-57
2022/05/05 04:50:14;;;;;;;16.77;12.45;;;7.00;99.90;;;;;;5039182;28;20052;-57
2022/05/05 04:52:40;;;;;;;14.50;11.98;;;7.00;99.90;;;;;;5041644;28;20056;-57
2022/05/05 04:55:06;;;;;;;17.00;12.07;;;7.00;99.90;;;;;;5040297;28;20515;-57
2022/05/05 04:57:34;;;;;;;17.60;12.52;;;7.00;99.90;;;;;;5039877;28;20798;-56
2022/05/05 05:00:00;;;;;;;17.10;12.15;;;7.10;99.90;;;;;;5032734;28;20108;-57
2022/05/05 05:02:26;;;;;;;21.58;12.35;;;7.10;99.90;;;;;;5032522;28;20059;-57
2022/05/05 05:04:52;;;;;;;17.17;12.88;;;7.10;99.90;;;;;;5022657;28;20048;-57
2022/05/05 05:07:18;;;;;;;16.50;12.93;;;7.20;99.90;;;;;;5034202;28;20048;-57
2022/05/05 05:09:44;;;;;;;18.17;13.10;;;7.20;99.90;;;;;;5020461;28;20119;-48
2022/05/05 05:12:10;;;;;;;17.30;13.43;;;7.30;99.90;;;;;;5036047;28;20041;-54
2022/05/05 05:14:36;;;;;;;19.08;12.50;;;7.30;99.90;;;;;;5039429;28;20041;-57
2022/05/05 05:17:03;;;;;;;16.40;13.80;;;7.30;99.90;;;;;;5034880;28;20041;-56
2022/05/05 05:19:29;;;;;;;23.75;13.82;;;7.40;99.90;;;;;;5041452;28;20508;-57
2022/05/05 05:21:55;;;;;;;18.95;13.60;;;7.50;99.90;;;;;;5020276;28;20041;-57
2022/05/05 05:24:21;;;;;;;18.67;13.38;;;7.60;99.90;;;;;;5031144;28;20501;-57
2022/05/05 05:26:47;;;;;;;17.95;13.00;;;7.70;99.90;;;;;;5034057;28;20060;-47
2022/05/05 05:29:13;;;;;;;18.40;13.55;;;7.80;99.90;;;;;;5039845;28;20456;-47
2022/05/05 05:31:39;;;;;;;18.38;13.68;;;7.80;99.90;;;;;;5043054;28;20045;-46
2022/05/05 05:34:05;;;;;;;20.60;12.13;;;7.90;99.90;;;;;;5042918;28;20041;-57
2022/05/05 05:36:31;;;;;;;20.08;13.55;;;8.00;99.90;;;;;;5041721;28;20050;-57
2022/05/05 05:38:58;;;;;;;18.85;12.88;;;8.10;99.90;;;;;;5037639;28;20092;-57
2022/05/05 05:41:24;;;;;;;16.00;12.95;;;8.30;99.90;;;;;;5039300;28;20096;-57
2022/05/05 05:43:50;;;;;;;16.30;13.40;;;8.50;99.90;;;;;;5043311;28;20520;-57
2022/05/05 05:46:16;;;;;;;18.98;13.57;;;8.70;99.90;;;;;;5034742;28;20407;-57
2022/05/05 05:48:42;;;;;;;18.58;13.10;;;9.00;99.90;;;;;;5039320;28;20081;-57
2022/05/05 05:51:08;;;;;;;17.38;12.10;;;9.30;99.90;;;;;;5002903;28;20252;-61
2022/05/05 05:53:34;;;;;;;22.80;13.38;;;9.50;99.90;;;;;;5034165;28;20481;-56
2022/05/05 05:56:00;;;;;;;18.90;12.93;;;9.80;99.90;;;;;;5037671;28;20056;-57
2022/05/05 05:58:26;;;;;;;15.75;11.05;;;10.00;99.90;;;;;;5040977;28;20106;-57
2022/05/05 06:00:52;;;;;;;18.40;11.52;;;10.40;99.90;;;;;;5020405;28;20126;-57
2022/05/05 06:06:03;;;;;;;18.13;9.65;;;11.00;99.90;;;;;;5031572;28;20056;-57
2022/05/05 06:08:30;;;;;;;18.08;9.88;;;11.20;99.90;;;;;;5022766;28;20056;-57
2022/05/05 06:10:56;;;;;;;15.98;10.00;;;11.50;99.90;;;;;;5031178;28;20240;-53
2022/05/05 06:13:23;;;;;;;13.70;10.20;;;11.70;99.90;;;;;;5025024;28;20183;-59
2022/05/05 06:15:49;;;;;;;15.65;9.15;;;12.10;99.90;;;;;;5032955;28;20590;-57
2022/05/05 06:18:15;;;;;;;14.00;8.80;;;12.10;99.90;;;;;;5024857;28;20563;-58
2022/05/05 06:20:41;;;;;;;13.63;9.70;;;12.10;99.90;;;;;;5040970;28;20662;-57
2022/05/05 06:23:07;;;;;;;11.52;8.88;;;12.20;99.90;;;;;;5046846;28;20732;-49
2022/05/05 06:25:33;;;;;;;12.50;8.13;;;12.20;99.90;;;;;;5042003;28;20478;-52
2022/05/05 06:27:59;;;;;;;11.93;8.80;;;12.40;99.90;;;;;;5025528;28;20439;-47
2022/05/05 06:30:25;;;;;;;14.52;8.95;;;12.50;99.90;;;;;;5041515;28;20358;-47
2022/05/05 06:32:51;;;;;;;13.13;8.25;;;12.50;99.90;;;;;;5034015;28;20126;-48
2022/05/05 06:35:17;;;;;;;12.60;8.90;;;12.70;99.90;;;;;;5040970;28;20200;-49
2022/05/05 06:37:43;;;;;;;14.00;8.25;;;12.80;99.90;;;;;;5042743;28;20766;-48
2022/05/05 06:40:10;;;;;;;12.73;7.68;;;13.00;99.90;;;;;;5040672;28;20063;-46
2022/05/05 06:42:36;;;;;;;10.27;7.53;;;13.20;99.90;;;;;;5043482;28;20076;-52
2022/05/05 06:45:05;;;;;;;12.02;7.80;;;13.30;99.90;;;;;;5039447;28;20507;-57
2022/05/05 06:47:31;;;;;;;12.07;7.07;;;13.40;99.90;;;;;;5040471;28;20078;-57
2022/05/05 06:49:57;;;;;;;12.02;8.30;;;13.70;99.90;;;;;;5024682;28;20052;-57
2022/05/05 06:52:23;;;;;;;14.02;8.30;;;13.80;99.90;;;;;;5040281;28;20538;-48
2022/05/05 06:54:49;;;;;;;13.20;7.93;;;14.00;99.90;;;;;;5028384;28;20452;-57
2022/05/05 06:57:16;;;;;;;11.80;7.70;;;14.30;99.90;;;;;;5038342;28;20044;-58
2022/05/05 06:59:42;;;;;;;13.13;7.75;;;14.10;99.90;;;;;;5040526;28;20427;-58
2022/05/05 07:02:08;;;;;;;10.75;7.03;;;14.30;99.90;;;;;;5041449;28;20045;-46
2022/05/05 07:07:21;;;;;;;16.73;7.97;;;14.50;99.90;;;;;;5041191;28;20092;-58
2022/05/05 07:12:32;;;;;;;11.82;7.10;;;14.50;99.90;;;;;;5052525;28;20051;-48
2022/05/05 07:14:59;;;;;;;13.85;7.25;;;14.50;99.90;;;;;;5049507;28;20587;-59
2022/05/05 07:17:25;;;;;;;16.30;7.28;;;14.60;99.90;;;;;;5053344;28;20073;-57
2022/05/05 07:19:52;;;;;;;10.18;6.57;;;14.70;99.90;;;;;;5049901;28;20055;-58
2022/05/05 07:22:19;;;;;;;13.20;7.85;;;14.80;99.90;;;;;;5036836;28;20041;-49
2022/05/05 07:24:49;;;;;;;11.73;7.22;;;14.90;99.90;;;;;;5031961;28;20038;-56
2022/05/05 07:27:34;;;;;;;12.85;7.15;;;15.00;99.90;;;;;;4971501;28;20053;-47
2022/05/05 07:30:09;;;;;;;11.52;6.90;;;15.00;99.90;;;;;;4975396;28;20102;-56
2022/05/05 07:32:35;;;;;;;12.75;6.82;;;15.00;99.90;;;;;;5023075;28;20087;-57
2022/05/05 07:35:02;;;;;;;11.77;7.18;;;15.10;99.90;;;;;;5033232;28;20500;-57
2022/05/05 07:37:28;;;;;;;10.80;6.40;;;15.30;99.90;;;;;;5034173;28;20041;-56
2022/05/05 07:39:54;;;;;;;11.93;6.72;;;15.80;99.90;;;;;;5019617;28;20058;-59
2022/05/05 07:42:20;;;;;;;12.20;6.75;;;15.90;99.90;;;;;;5037668;28;20045;-57
2022/05/05 07:44:46;;;;;;;11.88;6.07;;;16.40;99.90;;;;;;5023521;28;20520;-57
2022/05/05 07:47:12;;;;;;;12.68;6.35;;;16.40;99.90;;;;;;5027137;28;20427;-57
2022/05/05 07:49:38;;;;;;;15.05;6.50;;;16.30;99.90;;;;;;5024679;28;20056;-57
2022/05/05 07:52:04;;;;;;;9.82;5.00;;;16.60;99.90;;;;;;5033398;28;20057;-57
2022/05/05 07:54:42;;;;;;;10.55;5.70;;;16.70;99.90;;;;;;5036984;28;20055;-56
2022/05/05 07:57:11;;;;;;;10.23;5.50;;;16.70;99.90;;;;;;5036042;28;20094;-57
2022/05/05 07:59:39;;;;;;;11.57;5.15;;;16.50;99.90;;;;;;5032868;28;20103;-56
2022/05/05 08:02:13;;;;;;;10.80;5.13;;;16.90;99.90;;;;;;5029298;28;20053;-57
2022/05/05 08:04:39;;;;;;;9.88;5.25;;;16.90;99.90;;;;;;5027087;28;20045;-56
2022/05/05 08:07:06;;;;;;;10.82;5.13;;;16.70;99.90;;;;;;5035985;28;20512;-56
2022/05/05 08:09:32;;;;;;;12.82;5.50;;;17.10;99.90;;;;;;5020103;28;20045;-56
2022/05/05 08:12:01;;;;;;;11.32;6.00;;;17.00;99.90;;;;;;5016277;28;20060;-56
2022/05/05 08:14:28;;;;;;;8.27;5.30;;;16.90;99.90;;;;;;5037245;28;20659;-56
2022/05/05 08:16:55;;;;;;;10.85;5.28;;;17.00;99.90;;;;;;5031542;28;20463;-56
2022/05/05 08:19:22;;;;;;;10.82;4.97;;;17.30;99.90;;;;;;5016210;28;20049;-57
2022/05/05 08:21:48;;;;;;;12.95;5.45;;;17.60;99.90;;;;;;5007860;28;20491;-56
2022/05/05 08:29:43;;;;;;;13.13;5.72;;;17.70;99.90;;;;;;5008171;28;20053;-47
2022/05/05 08:32:10;;;;;;;11.23;5.20;;;18.00;99.90;;;;;;5035096;28;20048;-47
2022/05/05 08:34:36;;;;;;;8.55;5.32;;;18.00;98.90;;;;;;5036448;28;20044;-45
2022/05/05 08:37:03;;;;;;;7.60;5.25;;;18.10;97.80;;;;;;5022042;28;20041;-48
2022/05/05 08:39:29;;;;;;;14.68;11.77;;;17.90;97.50;;;;;;5032757;28;20049;-49
2022/05/05 08:41:55;;;;;;;8.63;5.50;;;18.20;96.40;;;;;;5029372;28;20099;-49
2022/05/05 08:44:21;;;;;;;12.45;5.80;;;18.30;94.90;;;;;;5035839;28;20048;-49
2022/05/05 08:46:49;;;;;;;8.93;5.10;;;18.40;94.70;;;;;;5023114;28;20241;-49
2022/05/05 08:49:20;;;;;;;131.57;119.13;;;18.80;93.10;;;;;;5027699;28;20153;-50
2022/05/05 08:51:49;;;;;;;10.53;6.27;;;18.90;94.50;;;;;;5035799;28;21460;-48
2022/05/05 08:54:16;;;;;;;18.23;12.40;;;18.90;92.50;;;;;;5047951;28;20096;-50
2022/05/05 08:56:49;;;;;;;18.67;16.83;;;19.00;91.70;;;;;;5040949;28;20056;-47
2022/05/05 08:59:17;;;;;;;11.38;8.00;;;19.30;92.70;;;;;;5014101;28;20098;-47
2022/05/05 09:01:43;;;;;;;10.27;7.57;;;19.70;91.30;;;;;;5032595;28;20095;-46
2022/05/05 09:04:09;;;;;;;13.27;10.35;;;19.60;90.40;;;;;;5034996;28;20049;-44
2022/05/05 09:06:43;;;;;;;9.50;5.38;;;19.50;90.90;;;;;;5032242;28;20029;-54
2022/05/05 09:09:25;;;;;;;9.40;5.90;;;19.60;89.60;;;;;;5029400;28;20387;-49
2022/05/05 09:12:12;;;;;;;44.85;39.85;;;19.40;91.10;;;;;;5031579;28;20397;-53
2022/05/05 09:14:49;;;;;;;10.60;6.22;;;19.30;87.00;;;;;;5034897;28;20259;-52
2022/05/05 09:17:16;;;;;;;10.15;6.82;;;19.50;89.60;;;;;;5035681;28;20440;-51
2022/05/05 09:19:45;;;;;;;13.07;9.65;;;19.90;86.40;;;;;;5038721;28;20128;-46
2022/05/05 09:22:13;;;;;;;24.38;19.73;;;20.00;89.20;;;;;;5029718;28;20151;-52
2022/05/05 09:24:44;;;;;;;11.10;6.97;;;20.40;86.40;;;;;;5040304;28;20071;-59
2022/05/05 09:27:27;;;;;;;8.55;5.85;;;20.10;85.30;;;;;;5039000;28;20103;-58
2022/05/05 09:30:14;;;;;;;8.13;5.20;;;20.60;90.90;;;;;;5023528;28;20071;-58
2022/05/05 09:32:46;;;;;;;8.65;5.70;;;20.70;82.60;;;;;;5037083;28;20049;-61
2022/05/05 09:35:19;;;;;;;9.65;5.95;;;20.70;79.60;;;;;;5034486;28;20049;-59
2022/05/05 09:37:48;;;;;;;8.13;5.40;;;21.20;82.60;;;;;;5035064;28;20187;-51
2022/05/05 09:40:20;;;;;;;8.90;5.72;;;21.70;74.30;;;;;;5033427;28;20053;-52
2022/05/05 09:42:50;;;;;;;8.07;5.72;;;21.90;73.10;;;;;;5031131;28;20558;-52
2022/05/05 09:45:25;;;;;;;7.03;5.87;;;22.00;67.40;;;;;;5034820;28;20505;-52
2022/05/05 09:47:53;;;;;;;7.70;5.43;;;21.30;62.10;;;;;;5031951;28;20811;-53
2022/05/05 09:50:24;;;;;;;11.93;6.82;;;21.20;72.60;;;;;;5038888;28;20037;-51
2022/05/05 09:58:25;;;;;;;10.15;5.70;;;21.90;69.00;;;;;;5028140;28;20419;-49
2022/05/05 10:00:59;;;;;;;9.98;6.50;;;21.80;65.80;;;;;;5004931;28;20049;-48
2022/05/05 10:06:34;;;;;;;9.70;6.18;;;22.40;66.30;;;;;;5031759;28;20048;-51
2022/05/05 10:09:01;;;;;;;;;;;22.70;63.50;;;;;;5031641;28;20138;-52
2022/05/05 10:11:27;;;;;;;8.00;5.57;;;22.40;58.70;;;;;;4990917;28;19925;-52
2022/05/05 10:13:56;;;;;;;9.35;6.18;;;22.40;62.70;;;;;;5025475;28;20091;-50
2022/05/05 10:16:23;;;;;;;9.50;6.70;;;22.20;62.60;;;;;;5031923;28;20041;-52
2022/05/05 10:18:50;;;;;;;8.02;6.40;;;22.40;62.30;;;;;;5029793;28;20121;-52
2022/05/05 10:21:41;;;;;;;10.55;6.65;;;23.00;61.70;;;;;;5016328;28;20098;-53
2022/05/05 10:24:24;;;;;;;10.38;7.15;;;23.50;56.30;;;;;;5028856;28;20049;-56
2022/05/05 10:26:53;;;;;;;7.97;5.40;;;23.30;50.60;;;;;;5031452;28;20111;-58
2022/05/05 10:29:34;;;;;;;10.10;5.65;;;23.20;53.30;;;;;;5031971;28;20142;-52
2022/05/05 10:32:15;;;;;;;9.77;5.72;;;23.00;50.10;;;;;;5037686;28;20071;-52
2022/05/05 10:34:45;;;;;;;10.50;5.63;;;22.80;50.70;;;;;;5034989;28;20041;-58
2022/05/05 10:37:40;;;;;;;8.90;6.18;;;22.80;50.10;;;;;;5036436;28;20470;-60
2022/05/05 10:40:10;;;;;;;9.70;7.22;;;23.30;51.40;;;;;;5019122;28;20097;-59
2022/05/05 10:42:50;;;;;;;7.63;5.88;;;23.10;50.70;;;;;;5037350;28;20579;-58
2022/05/05 10:45:18;;;;;;;9.18;6.25;;;22.70;49.80;;;;;;5035612;28;20204;-59
2022/05/05 10:47:57;;;;;;;9.77;7.70;;;23.30;55.00;;;;;;5035932;28;20092;-58
2022/05/05 10:50:39;;;;;;;10.20;6.53;;;23.30;51.10;;;;;;5035533;28;20053;-58
2022/05/05 10:53:07;;;;;;;7.75;5.90;;;23.60;48.00;;;;;;5030199;28;20045;-58
2022/05/05 10:55:40;;;;;;;7.07;5.32;;;23.10;52.60;;;;;;5029920;28;20587;-58
2022/05/05 10:58:09;;;;;;;9.25;6.57;;;22.80;49.40;;;;;;5031049;28;20176;-48
2022/05/05 11:00:44;;;;;;;8.07;5.97;;;22.10;50.80;;;;;;5031336;28;20508;-57
2022/05/05 11:03:14;;;;;;;12.57;8.90;;;22.40;50.00;;;;;;5028704;28;20045;-50
2022/05/05 11:05:41;;;;;;;7.47;5.88;;;22.70;51.10;;;;;;5031466;28;20034;-51
2022/05/05 11:08:14;;;;;;;7.30;5.75;;;22.50;51.40;;;;;;5035105;28;20651;-51
2022/05/05 11:10:45;;;;;;;10.40;9.35;;;22.70;50.40;;;;;;5026991;28;20049;-50
2022/05/05 11:13:40;;;;;;;8.10;5.53;;;22.50;52.00;;;;;;5015580;28;20542;-50
2022/05/05 11:22:12;;;;;;;7.57;4.93;;;23.20;48.30;;;;;;5034618;28;20063;-52
2022/05/05 11:24:45;;;;;;;9.13;5.20;;;22.90;50.40;;;;;;5028634;28;20048;-51
2022/05/05 11:27:16;;;;;;;7.93;5.97;;;23.30;49.70;;;;;;5030183;28;20057;-51
2022/05/05 11:30:00;;;;;;;;;;;23.30;49.20;;;;;;5030163;28;20396;-52
2022/05/05 11:32:32;;;;;;;7.43;4.65;;;23.60;47.80;;;;;;5027762;28;20039;-51
2022/05/05 11:34:59;;;;;;;7.93;5.03;;;23.00;47.70;;;;;;5032375;28;20155;-52
2022/05/05 11:37:27;;;;;;;8.40;6.10;;;23.40;46.70;;;;;;5012227;28;20045;-47
2022/05/05 11:39:53;;;;;;;7.30;5.28;;;23.40;46.20;;;;;;5036604;28;20103;-58
2022/05/05 11:42:20;;;;;;;6.28;4.88;;;23.40;47.10;;;;;;5028376;28;20048;-58
2022/05/05 11:44:48;;;;;;;9.27;5.72;;;23.10;46.40;;;;;;5038719;28;20041;-52
2022/05/05 11:47:17;;;;;;;9.98;7.45;;;23.40;45.40;;;;;;5026330;28;20174;-52
2022/05/05 11:49:52;;;;;;;7.78;6.05;;;23.50;45.30;;;;;;5031408;28;20551;-51
2022/05/05 11:52:23;;;;;;;11.73;10.52;;;23.80;45.30;;;;;;5019126;28;20053;-50
2022/05/05 11:54:51;;;;;;;;;;;23.70;44.90;;;;;;5027735;28;20044;-51
2022/05/05 11:57:39;;;;;;;7.78;5.90;;;24.10;45.30;;;;;;5029950;28;20007;-50
2022/05/05 12:02:54;;;;;;;8.75;6.25;;;24.60;45.20;;;;;;5027935;28;20053;-49
2022/05/05 12:05:22;;;;;;;7.45;6.13;;;24.40;43.90;;;;;;5032701;28;20045;-50
2022/05/05 12:07:50;;;;;;;8.15;6.30;;;24.60;44.40;;;;;;5032390;28;20053;-49
2022/05/05 12:10:17;;;;;;;12.50;9.90;;;24.70;43.10;;;;;;5027049;28;20175;-56
2022/05/05 12:12:45;;;;;;;8.55;5.47;;;25.10;43.30;;;;;;4999359;28;20391;-53
2022/05/05 12:15:12;;;;;;;7.30;4.63;;;25.80;43.30;;;;;;5014672;28;20048;-52
2022/05/05 12:17:43;;;;;;;11.27;8.85;;;25.40;41.00;;;;;;5009927;28;20572;-52
2022/05/05 12:20:11;;;;;;;5.63;4.75;;;25.90;41.20;;;;;;5031478;28;20049;-53
2022/05/05 12:22:39;;;;;;;7.97;5.55;;;26.20;41.60;;;;;;5014191;28;20037;-54
2022/05/05 12:25:16;;;;;;;7.65;5.20;;;26.40;40.90;;;;;;5029628;28;20124;-48
2022/05/05 12:28:01;;;;;;;6.03;4.78;;;26.60;40.40;;;;;;5020110;28;20555;-53
2022/05/05 12:30:30;;;;;;;19.38;17.45;;;26.30;40.60;;;;;;5034388;28;20083;-52
2022/05/05 12:32:57;;;;;;;7.78;5.60;;;26.80;40.70;;;;;;5010705;28;20045;-54
2022/05/05 12:35:34;;;;;;;9.27;5.97;;;25.70;40.80;;;;;;5026811;28;20558;-53
2022/05/05 12:38:01;;;;;;;14.57;13.05;;;25.00;39.70;;;;;;5034886;28;20048;-51
2022/05/05 12:40:28;;;;;;;12.60;8.25;;;25.00;42.60;;;;;;5030500;28;20168;-56
2022/05/05 12:43:07;;;;;;;12.60;7.90;;;25.40;41.80;;;;;;5032861;28;20049;-60
2022/05/05 12:45:35;;;;;;;14.60;6.72;;;25.50;41.90;;;;;;5027305;28;20044;-54
2022/05/05 12:48:04;;;;;;;7.15;4.97;;;25.40;41.20;;;;;;5028100;28;20050;-55
2022/05/05 12:50:36;;;;;;;9.18;5.20;;;25.20;41.30;;;;;;5032540;28;20458;-61
2022/05/05 13:01:46;;;;;;;7.32;5.50;;;24.80;41.50;;;;;;5016147;28;20049;-61
2022/05/05 13:04:15;;;;;;;7.80;5.30;;;24.80;40.70;;;;;;5027010;28;20795;-61
2022/05/05 13:06:45;;;;;;;10.30;5.78;;;25.30;40.50;;;;;;5020799;28;20054;-52
2022/05/05 13:09:12;;;;;;;8.55;5.43;;;25.30;40.40;;;;;;5036593;28;20056;-61
2022/05/05 13:11:40;;;;;;;7.68;5.15;;;24.90;41.00;;;;;;5027142;28;20049;-62
2022/05/05 13:14:06;;;;;;;7.35;5.03;;;25.10;40.50;;;;;;5029983;28;20045;-62
2022/05/05 13:16:34;;;;;;;12.15;7.72;;;24.90;40.50;;;;;;5018006;28;20075;-61
2022/05/05 13:19:04;;;;;;;8.60;5.85;;;23.90;42.00;;;;;;5034576;28;20037;-66
2022/05/05 13:21:39;;;;;;;7.40;5.77;;;23.40;43.20;;;;;;5033985;28;20124;-61
2022/05/05 13:24:06;;;;;;;13.05;8.93;;;23.30;44.70;;;;;;5030872;28;20075;-55
2022/05/05 13:26:33;;;;;;;9.52;6.47;;;23.10;44.10;;;;;;5031266;28;20055;-61
2022/05/05 13:29:00;;;;;;;9.38;6.18;;;23.10;44.70;;;;;;5035782;28;20061;-63
2022/05/05 13:31:26;;;;;;;9.00;5.93;;;22.70;45.20;;;;;;5030364;28;20056;-65
2022/05/05 13:33:52;;;;;;;7.22;5.65;;;22.70;45.70;;;;;;5021274;28;20484;-61
2022/05/05 13:36:18;;;;;;;10.38;5.40;;;22.60;46.60;;;;;;5034210;28;20048;-56
2022/05/05 13:38:44;;;;;;;7.50;5.97;;;22.70;47.10;;;;;;5016427;28;20494;-58